Essex Junction, Vermont
Current Conditions -  °F | °C
As of 7:54 AM on Friday 28 Nov 2014 (Local Time) from KBTV Reporting Station
Broken Clouds Broken Clouds  
Wind Chill: 17°   Ceiling: 3400
Heat Index: 26°   Visibility: 10mi
Dew Point: 15°   Wind: 9mph
Humidity: 63%   Direction: 300°WNW
Pressure: 30.09"   Gusts: NA
Location:  44.49°N, 73.11°W
Report Text: KBTV 281254Z 30008KT 10SM BKN034 BKN041 BKN080 M03/M09 A3009 RMK AO2 SNE1157 SLP195 P0000 T10331094
Loading
Personal Weather Stations






























Interactive Weather Map New forecast layout! Learn more

10-Day Weather Forecast

Advertisements
Track Severe Weather on mobile